createdAt,value
2022-08-05T00:02:07.233Z,99919.19
2022-08-05T00:04:10.758Z,99921.56
2022-08-05T00:06:29.171Z,99920.78
2022-08-05T00:08:36.429Z,99916.78
2022-08-05T00:10:39.103Z,99915.97
2022-08-05T00:12:56.150Z,99919.16
2022-08-05T00:14:59.637Z,99914.75
2022-08-05T00:17:22.476Z,99913.53
2022-08-05T00:19:33.480Z,99915.91
2022-08-05T00:21:43.251Z,99920.28
2022-08-05T00:24:06.147Z,99913.88
2022-08-05T00:26:10.743Z,99917.03
2022-08-05T00:28:14.014Z,99918.97
2022-08-05T00:30:16.654Z,99925.34
2022-08-05T00:32:20.502Z,99917.28
2022-08-05T00:34:56.351Z,99912.06
2022-08-05T00:37:11.837Z,99919.63
2022-08-05T00:39:14.291Z,99918.78
2022-08-05T00:41:51.729Z,99916.00
2022-08-05T00:43:53.764Z,99914.78
2022-08-05T00:45:56.407Z,99905.97
2022-08-05T00:48:05.164Z,99909.97
2022-08-05T00:50:10.092Z,99912.78
2022-08-05T00:52:12.764Z,99912.78
2022-08-05T00:54:16.030Z,99915.94
2022-08-05T00:56:22.813Z,99909.59
2022-08-05T00:58:27.445Z,99917.59
2022-08-05T01:00:31.637Z,99903.16
2022-08-05T01:02:34.228Z,99910.78
2022-08-05T01:04:36.867Z,99916.00
2022-08-05T01:06:48.683Z,99907.19
2022-08-05T01:08:54.098Z,99911.19
2022-08-05T01:11:14.850Z,99915.63
2022-08-05T01:13:58.525Z,99902.81
2022-08-05T01:16:05.203Z,99910.00
2022-08-05T01:18:15.244Z,99912.00
2022-08-05T01:20:37.067Z,99917.63
2022-08-05T01:23:34.984Z,99912.00
2022-08-05T01:26:15.387Z,99915.19
2022-08-05T01:28:42.552Z,99920.38
2022-08-05T01:30:55.356Z,99912.78
2022-08-05T01:33:00.710Z,99912.84
2022-08-05T01:35:10.654Z,99914.91
2022-08-05T01:37:25.222Z,99915.75
2022-08-05T01:39:46.453Z,99917.41
2022-08-05T01:41:52.189Z,99918.63
2022-08-05T01:43:57.026Z,99916.22
2022-08-05T01:46:07.262Z,99921.88
2022-08-05T01:48:20.722Z,99919.50
2022-08-05T01:50:32.792Z,99922.31
2022-08-05T01:52:38.552Z,99920.72
2022-08-05T01:54:48.722Z,99916.78
2022-08-05T01:58:13.193Z,99922.00
2022-08-05T01:59:23.345Z,99931.19
2022-08-05T02:01:28.157Z,99921.56
2022-08-05T02:03:40.782Z,99920.81
2022-08-05T02:05:45.109Z,99926.81
2022-08-05T02:07:56.323Z,99922.84
2022-08-05T02:10:05.862Z,99925.63
2022-08-05T02:12:27.215Z,99922.06
2022-08-05T02:14:34.455Z,99923.69
2022-08-05T02:16:54.842Z,99925.69
2022-08-05T02:19:34.200Z,99923.31
2022-08-05T02:21:46.757Z,99932.53
2022-08-05T02:23:56.813Z,99934.56
2022-08-05T02:26:03.123Z,99926.19
2022-08-05T02:28:08.923Z,99937.41
2022-08-05T02:30:12.930Z,99926.66
2022-08-05T02:32:24.192Z,99927.88
2022-08-05T02:34:35.189Z,99936.66
2022-08-05T02:36:59.939Z,99929.13
2022-08-05T02:39:10.463Z,99937.50
2022-08-05T02:41:17.862Z,99935.13
2022-08-05T02:43:23.037Z,99933.97
2022-08-05T02:45:26.987Z,99938.81
2022-08-05T02:48:06.670Z,99938.41
2022-08-05T02:49:56.240Z,99937.22
2022-08-05T02:52:02.735Z,99936.41
2022-08-05T02:54:07.132Z,99938.41
2022-08-05T02:56:16.111Z,99946.84
2022-08-05T02:58:23.205Z,99938.84
2022-08-05T03:00:30.735Z,99942.06
2022-08-05T03:02:39.685Z,99948.09
2022-08-05T03:04:43.915Z,99954.09
2022-08-05T03:06:57.087Z,99951.34
2022-08-05T03:09:02.057Z,99946.13
2022-08-05T03:11:57.447Z,99952.13
2022-08-05T03:13:51.824Z,99957.75
2022-08-05T03:16:03.574Z,99958.59
2022-08-05T03:18:06.433Z,99961.81
2022-08-05T03:20:10.888Z,99963.47
2022-08-05T03:22:19.017Z,99967.91
2022-08-05T03:24:35.601Z,99967.53
2022-08-05T03:26:38.504Z,99966.34
2022-08-05T03:28:41.156Z,99968.41
2022-08-05T03:30:44.784Z,99974.44
2022-08-05T03:32:49.978Z,99969.31
2022-08-05T03:34:52.731Z,99977.75
2022-08-05T03:36:55.377Z,99970.16
2022-08-05T03:38:58.843Z,99974.19
2022-08-05T03:41:08.422Z,99973.38
2022-08-05T03:43:58.531Z,99973.03
2022-08-05T03:45:57.254Z,99972.22
2022-08-05T03:47:59.435Z,99965.81
2022-08-05T03:50:02.659Z,99963.41
2022-08-05T03:52:49.192Z,99966.63
2022-08-05T03:55:00.468Z,99963.81
2022-08-05T03:57:29.199Z,99969.81
2022-08-05T03:59:54.809Z,99963.41
2022-08-05T04:02:02.632Z,99964.66
2022-08-05T04:04:09.960Z,99967.88
2022-08-05T04:06:13.726Z,99973.06
2022-08-05T04:08:35.141Z,99966.66
2022-08-05T04:10:39.696Z,99963.84
2022-08-05T04:14:45.180Z,99967.03
2022-08-05T04:16:48.435Z,99966.22
2022-08-05T04:18:54.034Z,99964.22
2022-08-05T04:20:58.429Z,99964.25
2022-08-05T04:23:01.165Z,99963.41
2022-08-05T04:25:04.057Z,99962.63
2022-08-05T04:27:06.723Z,99959.03
2022-08-05T04:29:10.274Z,99971.44
2022-08-05T04:31:12.960Z,99964.63
2022-08-05T04:33:16.538Z,99962.19
2022-08-05T04:36:15.604Z,99965.78
2022-08-05T04:38:06.593Z,99964.16
2022-08-05T04:40:10.528Z,99967.38
2022-08-05T04:42:13.415Z,99968.56
2022-08-05T04:44:29.559Z,99968.94
2022-08-05T04:46:33.133Z,99962.91
2022-08-05T04:48:35.676Z,99972.09
2022-08-05T04:51:01.615Z,99974.13
2022-08-05T04:53:05.674Z,99977.69
2022-08-05T04:55:14.589Z,99977.66
2022-08-05T04:57:17.938Z,99966.38
2022-08-05T04:59:37.412Z,99973.19
2022-08-05T05:02:35.306Z,99974.78
2022-08-05T05:04:05.501Z,99969.91
2022-08-05T05:06:39.450Z,99970.28
2022-08-05T05:08:37.267Z,99961.00
2022-08-05T05:10:56.126Z,99972.66
2022-08-05T05:12:59.300Z,99970.97
2022-08-05T05:15:06.076Z,99969.75
2022-08-05T05:17:13.521Z,99974.53
2022-08-05T05:19:19.329Z,99976.09
2022-08-05T05:21:27.211Z,99978.47
2022-08-05T05:23:39.385Z,99975.59
2022-08-05T05:25:52.853Z,99974.75
2022-08-05T05:27:56.234Z,99975.09
2022-08-05T05:30:04.927Z,99975.50
2022-08-05T05:32:08.119Z,99975.84
2022-08-05T05:34:19.029Z,99978.16
2022-08-05T05:36:28.527Z,99982.16
2022-08-05T05:38:32.292Z,99978.50
2022-08-05T05:40:35.125Z,99976.00
2022-08-05T05:42:38.976Z,99981.19
2022-08-05T05:44:43.146Z,99986.34
2022-08-05T05:46:48.772Z,99985.09
2022-08-05T05:48:53.777Z,99987.91
2022-08-05T05:50:56.302Z,99980.56
2022-08-05T05:52:58.899Z,99984.53
2022-08-05T05:55:07.450Z,99981.69
2022-08-05T05:57:19.295Z,99981.97
2022-08-05T05:59:22.189Z,99977.09
2022-08-05T06:01:25.386Z,99981.47
2022-08-05T06:04:00.436Z,99990.41
2022-08-05T06:06:06.879Z,99990.03
2022-08-05T06:08:10.894Z,99982.78
2022-08-05T06:10:13.971Z,99984.31
2022-08-05T06:12:18.279Z,99990.66
2022-08-05T06:14:22.314Z,99986.19
2022-08-05T06:16:33.009Z,99990.13
2022-08-05T06:18:39.940Z,99990.88
2022-08-05T06:20:42.630Z,99988.03
2022-08-05T06:22:50.640Z,99994.84
2022-08-05T06:24:53.421Z,99993.94
2022-08-05T06:26:56.292Z,99988.69
2022-08-05T06:28:58.981Z,99990.66
2022-08-05T06:31:10.875Z,99993.06
2022-08-05T06:33:19.058Z,100001.81
2022-08-05T06:36:07.777Z,99994.16
2022-08-05T06:37:58.159Z,99993.72
2022-08-05T06:40:03.186Z,99994.84
2022-08-05T06:42:07.019Z,99995.97
2022-08-05T06:44:09.970Z,99995.50
2022-08-05T06:46:13.071Z,99993.09
2022-08-05T06:48:52.960Z,99994.72
2022-08-05T06:50:38.802Z,99993.47
2022-08-05T06:52:41.813Z,99995.38
2022-08-05T06:55:02.436Z,100005.78
2022-08-05T06:57:58.097Z,99997.19
2022-08-05T06:59:29.431Z,99992.34
2022-08-05T07:01:42.664Z,99998.25
2022-08-05T07:03:46.096Z,99992.59
2022-08-05T07:05:49.011Z,99990.94
2022-08-05T07:07:52.731Z,99996.91
2022-08-05T07:09:58.263Z,99997.31
2022-08-05T07:12:01.594Z,99995.59
2022-08-05T07:14:28.906Z,99998.66
2022-08-05T07:18:00.162Z,99992.09
2022-08-05T07:19:16.034Z,99996.38
2022-08-05T07:21:59.198Z,99987.03
2022-08-05T07:24:01.221Z,99982.94
2022-08-05T07:26:06.122Z,99989.31
2022-08-05T07:28:11.790Z,99988.03
2022-08-05T07:30:28.171Z,99979.03
2022-08-05T07:32:39.478Z,99984.19
2022-08-05T07:34:42.613Z,99988.19
2022-08-05T07:36:45.291Z,99983.22
2022-08-05T07:38:47.877Z,99984.75
2022-08-05T07:40:55.540Z,99990.41
2022-08-05T07:43:13.810Z,99985.19
2022-08-05T07:45:56.812Z,99988.44
2022-08-05T07:47:45.826Z,99985.50
2022-08-05T07:49:54.543Z,99988.97
2022-08-05T07:51:57.470Z,99988.03
2022-08-05T07:54:02.286Z,99981.56
2022-08-05T07:56:38.968Z,99983.03
2022-08-05T07:58:54.627Z,99987.44
2022-08-05T08:00:51.087Z,99986.50
2022-08-05T08:03:13.811Z,99989.53
2022-08-05T08:05:17.413Z,99991.28
2022-08-05T08:07:22.763Z,99987.66
2022-08-05T08:09:26.011Z,99987.72
2022-08-05T08:11:47.498Z,99985.84
2022-08-05T08:14:00.848Z,99979.28
2022-08-05T08:16:50.014Z,99982.47
2022-08-05T08:18:28.054Z,99983.09
2022-08-05T08:20:43.820Z,99983.03
2022-08-05T08:22:57.700Z,99987.09
2022-08-05T08:25:03.509Z,99986.34
2022-08-05T08:27:07.696Z,99978.56
2022-08-05T08:29:45.165Z,99979.97
2022-08-05T08:31:33.995Z,99978.91
2022-08-05T08:33:37.886Z,99979.91
2022-08-05T08:35:53.050Z,99980.81
2022-08-05T08:38:07.520Z,99978.97
2022-08-05T08:40:11.941Z,99981.13
2022-08-05T08:42:46.802Z,99978.16
2022-08-05T08:45:16.263Z,99975.47
2022-08-05T08:47:47.454Z,99970.53
2022-08-05T08:50:12.822Z,99978.94
2022-08-05T08:52:14.878Z,99974.25
2022-08-05T08:54:19.964Z,99978.03
2022-08-05T08:56:27.351Z,99978.19
2022-08-05T08:58:43.285Z,99980.44
2022-08-05T09:00:49.075Z,99985.78
2022-08-05T09:02:54.568Z,99981.56
2022-08-05T09:05:16.920Z,99974.91
2022-08-05T09:07:28.374Z,99979.03
2022-08-05T09:09:35.603Z,99978.03
2022-08-05T09:11:51.276Z,99976.44
2022-08-05T09:14:09.345Z,99971.75
2022-08-05T09:16:20.305Z,99978.53
2022-08-05T09:18:23.194Z,99971.75
2022-08-05T09:20:37.736Z,99976.00
2022-08-05T09:23:05.159Z,99978.75
2022-08-05T09:25:14.012Z,99978.28
2022-08-05T09:28:04.418Z,99981.19
2022-08-05T09:30:02.227Z,99977.88
2022-08-05T09:32:41.545Z,99971.63
2022-08-05T09:34:55.151Z,99971.69
2022-08-05T09:36:59.799Z,99973.63
2022-08-05T09:39:18.125Z,99968.53
2022-08-05T09:41:25.256Z,99967.13
2022-08-05T09:43:41.947Z,99972.03
2022-08-05T09:46:07.277Z,99965.31
2022-08-05T09:48:28.453Z,99974.59
2022-08-05T09:50:38.901Z,99971.63
2022-08-05T09:52:52.919Z,99979.69
2022-08-05T09:55:57.383Z,99982.47
2022-08-05T09:57:44.066Z,99977.50
2022-08-05T09:59:48.264Z,99974.88
2022-08-05T10:01:57.890Z,99977.56
2022-08-05T10:04:12.483Z,99977.81
2022-08-05T10:06:21.268Z,99974.25
2022-08-05T10:08:37.726Z,99967.16
2022-08-05T10:10:44.786Z,99967.16
2022-08-05T10:12:56.620Z,99964.41
2022-08-05T10:15:21.667Z,99957.50
2022-08-05T10:17:37.827Z,99958.94
2022-08-05T10:20:03.577Z,99966.19
2022-08-05T10:22:09.123Z,99967.66
2022-08-05T10:24:20.510Z,99968.88
2022-08-05T10:26:32.619Z,99970.22
2022-08-05T10:28:36.834Z,99965.59
2022-08-05T10:32:46.881Z,99968.72
2022-08-05T10:33:03.913Z,99962.66
2022-08-05T10:35:07.294Z,99955.34
2022-08-05T10:37:13.297Z,99952.34
2022-08-05T10:39:59.180Z,99955.41
2022-08-05T10:42:09.232Z,99953.53
2022-08-05T10:44:18.402Z,99952.22
2022-08-05T10:46:24.266Z,99943.28
2022-08-05T10:48:58.164Z,99946.53
2022-08-05T10:51:22.037Z,99949.22
2022-08-05T10:53:55.620Z,99946.22
2022-08-05T10:56:21.052Z,99954.00
2022-08-05T10:58:47.759Z,99947.13
2022-08-05T11:00:55.073Z,99947.00
2022-08-05T11:03:22.991Z,99944.72
2022-08-05T11:05:29.319Z,99941.75
2022-08-05T11:08:01.240Z,99941.84
2022-08-05T11:10:04.035Z,99941.16
2022-08-05T11:12:37.298Z,99930.63
2022-08-05T11:15:00.970Z,99936.53
2022-08-05T11:17:57.014Z,99936.34
2022-08-05T11:20:11.257Z,99942.03
2022-08-05T11:22:42.255Z,99936.72
2022-08-05T11:24:50.735Z,99933.91
2022-08-05T11:27:51.206Z,99936.50
2022-08-05T11:30:00.194Z,99944.75
2022-08-05T11:32:28.622Z,99937.31
2022-08-05T11:34:50.984Z,99934.97
2022-08-05T11:36:57.183Z,99930.72
2022-08-05T11:39:00.237Z,99934.81
2022-08-05T11:41:36.800Z,99928.53
2022-08-05T11:44:04.601Z,99928.69
2022-08-05T11:46:14.968Z,99928.34
2022-08-05T11:48:15.210Z,99920.41
2022-08-05T11:50:18.335Z,99924.22
2022-08-05T11:52:29.068Z,99918.22
2022-08-05T11:54:38.233Z,99919.97
2022-08-05T11:56:50.461Z,99920.25
2022-08-05T11:58:54.606Z,99919.06
2022-08-05T12:01:08.482Z,99918.66
2022-08-05T12:03:23.949Z,99918.34
2022-08-05T12:05:39.757Z,99920.00
2022-08-05T12:08:03.577Z,99923.91
2022-08-05T12:10:09.680Z,99913.56
2022-08-05T12:12:20.999Z,99911.81
2022-08-05T12:14:25.574Z,99916.91
2022-08-05T12:16:38.386Z,99913.56
2022-08-05T12:18:42.739Z,99912.78
2022-08-05T12:20:54.819Z,99914.34
2022-08-05T12:23:11.436Z,99921.25
2022-08-05T12:25:14.514Z,99908.75
2022-08-05T12:27:26.834Z,99910.59
2022-08-05T12:29:37.936Z,99915.75
2022-08-05T12:31:53.502Z,99910.13
2022-08-05T12:33:57.489Z,99914.06
2022-08-05T12:36:02.702Z,99911.50
2022-08-05T12:38:07.340Z,99901.63
2022-08-05T12:40:26.554Z,99905.25
2022-08-05T12:42:31.576Z,99898.88
2022-08-05T12:44:34.511Z,99896.75
2022-08-05T12:46:39.102Z,99895.38
2022-08-05T12:48:41.872Z,99894.56
2022-08-05T12:52:10.273Z,99894.78
2022-08-05T12:53:55.747Z,99890.50
2022-08-05T12:55:58.565Z,99892.41
2022-08-05T12:58:52.741Z,99895.41
2022-08-05T13:02:02.758Z,99884.97
2022-08-05T13:02:55.490Z,99896.34
2022-08-05T13:04:58.698Z,99886.88
2022-08-05T13:07:04.782Z,99894.16
2022-08-05T13:09:14.356Z,99894.25
2022-08-05T13:12:01.033Z,99894.19
2022-08-05T13:14:05.273Z,99895.25
2022-08-05T13:16:16.668Z,99886.16
2022-08-05T13:18:20.533Z,99888.88
2022-08-05T13:20:25.348Z,99885.94
2022-08-05T13:22:30.944Z,99884.66
2022-08-05T13:24:51.377Z,99886.50
2022-08-05T13:26:56.405Z,99888.38
2022-08-05T13:29:00.685Z,99882.50
2022-08-05T13:31:14.040Z,99884.09
2022-08-05T13:34:22.451Z,99886.50
2022-08-05T13:35:47.625Z,99872.84
2022-08-05T13:37:55.343Z,99881.22
2022-08-05T13:40:15.115Z,99888.16
2022-08-05T13:42:24.990Z,99887.78
2022-08-05T13:44:27.709Z,99891.22
2022-08-05T13:46:51.013Z,99891.16
2022-08-05T13:48:57.664Z,99892.00
2022-08-05T13:51:10.702Z,99892.88
2022-08-05T13:53:15.789Z,99891.84
2022-08-05T13:55:41.575Z,99885.97
2022-08-05T13:57:50.620Z,99883.81
2022-08-05T13:59:57.184Z,99884.00
2022-08-05T14:02:01.029Z,99884.38
2022-08-05T14:04:26.513Z,99890.97
2022-08-05T14:06:29.353Z,99889.09
2022-08-05T14:08:32.991Z,99886.22
2022-08-05T14:10:37.549Z,99884.66
2022-08-05T14:12:42.957Z,99890.63
2022-08-05T14:14:51.351Z,99896.63
2022-08-05T14:16:55.369Z,99884.69
2022-08-05T14:19:04.421Z,99891.22
2022-08-05T14:22:07.117Z,99885.69
2022-08-05T14:23:36.297Z,99888.88
2022-08-05T14:25:45.067Z,99890.53
2022-08-05T14:27:49.611Z,99885.00
2022-08-05T14:29:52.848Z,99887.59
2022-08-05T14:32:13.764Z,99891.09
2022-08-05T14:34:17.970Z,99887.16
2022-08-05T14:36:26.459Z,99890.47
2022-08-05T14:38:34.434Z,99883.22
2022-08-05T14:40:38.897Z,99886.22
2022-08-05T14:42:42.222Z,99883.69
2022-08-05T14:44:46.004Z,99889.72
2022-08-05T14:46:48.547Z,99881.66
2022-08-05T14:48:51.301Z,99887.13
2022-08-05T14:50:55.587Z,99885.13
2022-08-05T14:52:59.946Z,99876.75
2022-08-05T14:55:02.937Z,99886.06
2022-08-05T14:57:09.838Z,99882.91
2022-08-05T14:59:16.603Z,99889.13
2022-08-05T15:01:24.217Z,99888.53
2022-08-05T15:03:42.471Z,99893.03
2022-08-05T15:06:07.326Z,99873.84
2022-08-05T15:08:18.001Z,99885.28
2022-08-05T15:10:34.242Z,99890.13
2022-08-05T15:12:57.660Z,99885.88
2022-08-05T15:14:59.815Z,99887.06
2022-08-05T15:17:03.757Z,99891.56
2022-08-05T15:19:06.654Z,99887.94
2022-08-05T15:21:20.950Z,99886.22
2022-08-05T15:23:23.877Z,99889.34
2022-08-05T15:25:50.954Z,99893.72
2022-08-05T15:27:52.326Z,99885.22
2022-08-05T15:29:56.847Z,99879.88
2022-08-05T15:32:03.372Z,99890.00
2022-08-05T15:34:31.506Z,99883.88
2022-08-05T15:36:31.234Z,99889.97
2022-08-05T15:38:41.763Z,99881.81
2022-08-05T15:41:20.324Z,99883.50
2022-08-05T15:43:10.812Z,99888.56
2022-08-05T15:45:23.174Z,99886.13
2022-08-05T15:47:43.054Z,99894.38
2022-08-05T15:49:53.755Z,99884.34
2022-08-05T15:52:04.023Z,99875.41
2022-08-05T15:54:16.768Z,99880.25
2022-08-05T15:56:22.991Z,99886.63
2022-08-05T15:58:25.629Z,99878.97
2022-08-05T16:00:50.499Z,99888.16
2022-08-05T16:02:51.885Z,99890.72
2022-08-05T16:04:55.245Z,99885.50
2022-08-05T16:06:57.752Z,99887.47
2022-08-05T16:09:00.775Z,99887.38
2022-08-05T16:11:04.530Z,99889.31
2022-08-05T16:13:07.079Z,99889.28
2022-08-05T16:15:10.778Z,99894.06
2022-08-05T16:17:21.032Z,99898.16
2022-08-05T16:20:02.822Z,99898.25
2022-08-05T16:22:01.059Z,99898.03
2022-08-05T16:24:06.484Z,99899.16
2022-08-05T16:26:15.535Z,99900.16
2022-08-05T16:28:19.744Z,99895.56
2022-08-05T16:30:28.586Z,99903.50
2022-08-05T16:32:32.140Z,99903.97
2022-08-05T16:34:34.846Z,99909.31
2022-08-05T16:36:37.355Z,99903.72
2022-08-05T16:38:45.381Z,99908.47
2022-08-05T16:41:01.400Z,99903.97
2022-08-05T16:43:04.687Z,99903.44
2022-08-05T16:46:04.636Z,99909.44
2022-08-05T16:47:36.188Z,99905.72
2022-08-05T16:49:43.472Z,99910.50
2022-08-05T16:51:51.063Z,99907.94
2022-08-05T16:54:03.141Z,99909.81
2022-08-05T16:56:11.963Z,99908.38
2022-08-05T16:58:14.867Z,99914.16
2022-08-05T17:00:34.661Z,99916.06
2022-08-05T17:02:37.957Z,99914.47
2022-08-05T17:04:40.774Z,99914.78
2022-08-05T17:06:43.330Z,99911.66
2022-08-05T17:08:55.728Z,99916.25
2022-08-05T17:10:58.300Z,99918.78
2022-08-05T17:13:01.511Z,99919.72
2022-08-05T17:15:07.649Z,99907.34
2022-08-05T17:17:14.827Z,99910.69
2022-08-05T17:19:17.997Z,99915.63
2022-08-05T17:21:20.578Z,99910.47
2022-08-05T17:24:06.008Z,99922.63
2022-08-05T17:25:48.900Z,99916.28
2022-08-05T17:27:54.135Z,99914.34
2022-08-05T17:30:00.866Z,99914.03
2022-08-05T17:32:08.278Z,99917.88
2022-08-05T17:34:11.145Z,99915.75
2022-08-05T17:36:32.534Z,99921.13
2022-08-05T17:38:37.648Z,99924.91
2022-08-05T17:40:42.476Z,99914.91
2022-08-05T17:42:50.987Z,99927.88
2022-08-05T17:44:54.784Z,99920.66
2022-08-05T17:46:57.621Z,99927.59
2022-08-05T17:49:00.169Z,99924.91
2022-08-05T17:51:03.246Z,99928.16
2022-08-05T17:53:11.945Z,99933.81
2022-08-05T17:55:14.549Z,99924.19
2022-08-05T17:57:18.258Z,99931.50
2022-08-05T17:59:22.751Z,99928.66
2022-08-05T18:01:25.940Z,99933.19
2022-08-05T18:03:58.915Z,99922.94
2022-08-05T18:05:53.615Z,99929.47
2022-08-05T18:07:57.028Z,99925.59
2022-08-05T18:10:02.066Z,99927.25
2022-08-05T18:12:13.028Z,99934.91
2022-08-05T18:14:25.042Z,99930.13
2022-08-05T18:16:27.717Z,99922.88
2022-08-05T18:18:30.497Z,99932.97
2022-08-05T18:20:33.140Z,99922.91
2022-08-05T18:22:46.208Z,99935.81
2022-08-05T18:24:57.357Z,99929.09
2022-08-05T18:26:59.966Z,99939.56
2022-08-05T18:29:02.443Z,99928.31
2022-08-05T18:31:06.327Z,99936.03
2022-08-05T18:33:13.840Z,99928.84
2022-08-05T18:35:17.313Z,99932.47
2022-08-05T18:37:34.229Z,99932.09
2022-08-05T18:40:34.546Z,99928.94
2022-08-05T18:42:10.917Z,99935.44
2022-08-05T18:44:14.036Z,99927.38
2022-08-05T18:46:37.162Z,99923.78
2022-08-05T18:48:43.834Z,99932.19
2022-08-05T18:52:02.884Z,99929.75
2022-08-05T18:53:29.647Z,99928.22
2022-08-05T18:55:37.262Z,99931.91
2022-08-05T18:57:49.894Z,99931.84
2022-08-05T19:00:01.395Z,99926.28
2022-08-05T19:02:26.737Z,99932.75
2022-08-05T19:04:30.739Z,99923.16
2022-08-05T19:06:44.696Z,99930.41
2022-08-05T19:08:48.331Z,99928.41
2022-08-05T19:10:51.092Z,99929.22
2022-08-05T19:12:53.913Z,99922.81
2022-08-05T19:14:59.785Z,99923.69
2022-08-05T19:17:06.347Z,99927.78
2022-08-05T19:19:10.264Z,99926.59
2022-08-05T19:21:16.001Z,99925.84
2022-08-05T19:24:05.771Z,99921.06
2022-08-05T19:25:43.541Z,99926.72
2022-08-05T19:27:49.855Z,99923.97
2022-08-05T19:29:56.667Z,99926.00
2022-08-05T19:32:01.622Z,99926.88
2022-08-05T19:34:04.380Z,99928.13
2022-08-05T19:36:09.057Z,99927.38
2022-08-05T19:38:11.795Z,99932.22
2022-08-05T19:40:17.166Z,99925.06
2022-08-05T19:42:35.780Z,99927.91
2022-08-05T19:44:45.053Z,99928.34
2022-08-05T19:46:50.151Z,99930.78
2022-08-05T19:48:53.692Z,99923.19
2022-08-05T19:50:57.877Z,99930.06
2022-08-05T19:53:09.666Z,99933.28
2022-08-05T19:56:14.765Z,99924.09
2022-08-05T19:57:49.257Z,99920.97
2022-08-05T20:00:02.544Z,99930.69
2022-08-05T20:02:07.400Z,99929.91
2022-08-05T20:04:09.955Z,99926.31
2022-08-05T20:06:16.035Z,99922.75
2022-08-05T20:08:31.596Z,99923.16
2022-08-05T20:10:34.200Z,99928.38
2022-08-05T20:12:39.398Z,99924.34
2022-08-05T20:14:52.713Z,99931.59
2022-08-05T20:16:56.162Z,99929.19
2022-08-05T20:18:59.274Z,99916.41
2022-08-05T20:21:06.810Z,99925.97
2022-08-05T20:23:09.565Z,99919.56
2022-08-05T20:25:15.045Z,99917.53
2022-08-05T20:27:18.323Z,99918.78
2022-08-05T20:29:27.307Z,99910.34
2022-08-05T20:31:42.086Z,99915.59
2022-08-05T20:33:53.533Z,99910.78
2022-08-05T20:35:56.762Z,99916.03
2022-08-05T20:38:06.385Z,99914.03
2022-08-05T20:40:11.322Z,99907.63
2022-08-05T20:42:13.860Z,99912.47
2022-08-05T20:44:29.789Z,99908.47
2022-08-05T20:46:33.692Z,99913.75
2022-08-05T20:48:37.127Z,99911.75
2022-08-05T20:50:45.250Z,99913.78
2022-08-05T20:52:48.181Z,99911.00
2022-08-05T20:54:59.518Z,99911.03
2022-08-05T20:57:24.664Z,99912.66
2022-08-05T21:00:10.999Z,99907.06
2022-08-05T21:02:02.852Z,99907.09
2022-08-05T21:04:12.484Z,99911.97
2022-08-05T21:06:28.555Z,99913.19
2022-08-05T21:08:42.346Z,99904.78
2022-08-05T21:10:48.823Z,99909.63
2022-08-05T21:13:08.935Z,99909.19
2022-08-05T21:15:17.010Z,99913.22
2022-08-05T21:17:19.979Z,99914.44
2022-08-05T21:19:24.045Z,99913.22
2022-08-05T21:21:26.533Z,99912.06
2022-08-05T21:23:42.408Z,99907.66
2022-08-05T21:25:45.290Z,99911.28
2022-08-05T21:27:47.835Z,99904.88
2022-08-05T21:29:56.411Z,99910.47
2022-08-05T21:31:59.129Z,99909.28
2022-08-05T21:34:01.630Z,99912.13
2022-08-05T21:36:04.685Z,99915.31
2022-08-05T21:38:07.552Z,99911.31
2022-08-05T21:40:13.681Z,99914.94
2022-08-05T21:42:41.221Z,99918.53
2022-08-05T21:44:39.436Z,99904.09
2022-08-05T21:46:41.942Z,99912.16
2022-08-05T21:48:45.524Z,99908.13
2022-08-05T21:50:53.011Z,99916.94
2022-08-05T21:52:59.099Z,99907.72
2022-08-05T21:55:10.940Z,99912.13
2022-08-05T21:57:31.384Z,99910.13
2022-08-05T22:00:01.599Z,99915.31
2022-08-05T22:01:57.654Z,99914.13
2022-08-05T22:04:00.206Z,99916.13
2022-08-05T22:06:02.763Z,99918.53
2022-08-05T22:08:07.859Z,99915.72
2022-08-05T22:10:27.319Z,99924.13
2022-08-05T22:12:32.216Z,99920.94
2022-08-05T22:14:37.742Z,99921.34
2022-08-05T22:16:51.125Z,99917.72
2022-08-05T22:18:58.790Z,99928.94
2022-08-05T22:21:04.086Z,99925.34
2022-08-05T22:24:03.061Z,99929.75
2022-08-05T22:26:10.872Z,99924.13
2022-08-05T22:28:14.346Z,99924.94
2022-08-05T22:30:20.778Z,99924.94
2022-08-05T22:32:23.641Z,99921.31
2022-08-05T22:34:28.790Z,99925.72
2022-08-05T22:36:31.860Z,99924.53
2022-08-05T22:38:34.432Z,99921.72
2022-08-05T22:40:37.101Z,99920.13
2022-08-05T22:42:41.081Z,99925.34
2022-08-05T22:44:48.523Z,99926.53
2022-08-05T22:46:58.193Z,99926.13
2022-08-05T22:49:01.174Z,99924.94
2022-08-05T22:51:07.083Z,99931.75
2022-08-05T22:53:10.524Z,99929.72
2022-08-05T22:55:21.434Z,99935.75
2022-08-05T22:57:24.256Z,99928.53
2022-08-05T22:59:43.569Z,99937.34
2022-08-05T23:02:04.480Z,99931.34
2022-08-05T23:04:08.929Z,99932.50
2022-08-05T23:06:11.493Z,99928.91
2022-08-05T23:08:14.296Z,99930.13
2022-08-05T23:10:19.948Z,99937.72
2022-08-05T23:12:24.444Z,99939.34
2022-08-05T23:14:32.300Z,99944.94
2022-08-05T23:16:53.984Z,99944.16
2022-08-05T23:18:56.705Z,99943.75
2022-08-05T23:21:00.619Z,99940.53
2022-08-05T23:23:03.619Z,99945.34
2022-08-05T23:25:09.193Z,99943.34
2022-08-05T23:27:14.893Z,99939.72
2022-08-05T23:29:17.787Z,99945.34
2022-08-05T23:31:22.007Z,99945.75
2022-08-05T23:33:26.563Z,99954.53
2022-08-05T23:35:48.288Z,99951.34
2022-08-05T23:37:52.088Z,99955.78
2022-08-05T23:39:55.739Z,99948.94
2022-08-05T23:41:58.278Z,99950.16
2022-08-05T23:44:06.522Z,99956.16
2022-08-05T23:46:19.650Z,99955.75
2022-08-05T23:48:23.016Z,99954.13
2022-08-05T23:50:28.945Z,99958.56
2022-08-05T23:52:35.846Z,99956.16
2022-08-05T23:54:38.909Z,99962.94
2022-08-05T23:56:41.575Z,99954.53
2022-08-05T23:58:44.828Z,99961.38
